Time;durP1;ratioP1;P1;durP2;ratioP2;P2;SDS_P1;SDS_P2;PMS_P1;PMS_P2;Temp;Humidity;BMP_temperature;BMP_pressure;BME280_temperature;BME280_humidity;BME280_pressure;Samples;Min_cycle;Max_cycle;Signal;HPM_P1;HPM_P2
2023/08/04 00:00:14;;;;;;;17.30;6.82;;;;;;;13.24;100.00;100859.16;5262928;28;20194;-75
2023/08/04 00:02:45;;;;;;;20.90;8.48;;;;;;;13.23;100.00;100860.03;5262974;28;20029;-76
2023/08/04 00:05:17;;;;;;;15.57;7.20;;;;;;;13.19;100.00;100861.00;5263430;28;20059;-76
2023/08/04 00:07:48;;;;;;;23.87;8.13;;;;;;;13.23;100.00;100860.88;5262866;28;20033;-75
2023/08/04 00:10:20;;;;;;;16.07;7.43;;;;;;;13.11;100.00;100864.66;5262855;28;20064;-75
2023/08/04 00:12:51;;;;;;;13.57;6.97;;;;;;;13.09;100.00;100866.44;5262832;28;20495;-76
2023/08/04 00:15:22;;;;;;;15.67;6.73;;;;;;;13.07;100.00;100868.25;5262547;28;20044;-76
2023/08/04 00:17:54;;;;;;;20.03;7.80;;;;;;;13.02;100.00;100870.06;5262677;28;20511;-76
2023/08/04 00:20:25;;;;;;;18.97;7.77;;;;;;;12.98;100.00;100868.44;5262740;28;20036;-77
2023/08/04 00:22:57;;;;;;;18.80;6.83;;;;;;;12.98;100.00;100868.44;5262714;28;20052;-76
2023/08/04 00:25:28;;;;;;;16.03;7.17;;;;;;;12.99;100.00;100872.75;5262529;28;20029;-77
2023/08/04 00:28:00;;;;;;;17.30;7.67;;;;;;;12.91;100.00;100872.94;5262585;28;20476;-76
2023/08/04 00:30:32;;;;;;;16.95;8.50;;;;;;;12.95;100.00;100873.72;5262477;28;20468;-76
2023/08/04 00:33:03;;;;;;;17.97;7.13;;;;;;;12.83;100.00;100873.97;5261986;28;20082;-76
2023/08/04 00:35:34;;;;;;;20.83;8.43;;;;;;;12.90;100.00;100881.66;5262217;28;20025;-77
2023/08/04 00:38:06;;;;;;;17.40;7.07;;;;;;;12.77;100.00;100881.06;5262221;28;20029;-77
2023/08/04 00:40:37;;;;;;;21.63;10.23;;;;;;;12.79;100.00;100877.56;5262438;28;20036;-77
2023/08/04 00:43:09;;;;;;;16.30;7.57;;;;;;;12.84;100.00;100883.56;5262124;28;20021;-78
2023/08/04 00:45:40;;;;;;;23.37;9.20;;;;;;;12.75;100.00;100888.09;5262331;28;20087;-76
2023/08/04 00:48:12;;;;;;;19.90;8.47;;;;;;;12.80;100.00;100894.97;5262378;28;20035;-76
2023/08/04 00:50:43;;;;;;;15.03;7.87;;;;;;;12.71;100.00;100888.16;5262165;28;20033;-76
2023/08/04 00:53:15;;;;;;;17.97;8.57;;;;;;;12.69;100.00;100889.97;5262288;28;20279;-76
2023/08/04 00:55:48;;;;;;;21.58;9.55;;;;;;;12.67;100.00;100889.09;5262388;28;20067;-76
2023/08/04 00:58:20;;;;;;;20.42;9.32;;;;;;;12.64;100.00;100897.91;5261820;28;20503;-76
2023/08/04 01:00:51;;;;;;;16.03;8.70;;;;;;;12.62;100.00;100889.19;5260404;28;20057;-76
2023/08/04 01:03:24;;;;;;;14.13;9.00;;;;;;;12.55;100.00;100893.69;5261879;28;20434;-76
2023/08/04 01:06:02;;;;;;;18.40;8.93;;;;;;;12.60;100.00;100896.22;5262007;28;20084;-75
2023/08/04 01:08:35;;;;;;;16.95;9.27;;;;;;;12.52;100.00;100906.81;5262194;28;20060;-76
2023/08/04 01:11:13;;;;;;;18.98;9.10;;;;;;;12.51;100.00;100905.13;5262097;28;20029;-75
2023/08/04 01:13:47;;;;;;;19.20;9.50;;;;;;;12.53;100.00;100899.84;5262103;28;20029;-77
2023/08/04 01:16:18;;;;;;;22.70;9.80;;;;;;;12.40;100.00;100902.69;5262055;28;20029;-75
2023/08/04 01:18:50;;;;;;;19.73;9.77;;;;;;;12.50;100.00;100902.53;5261767;28;20040;-77
2023/08/04 01:21:21;;;;;;;21.53;10.53;;;;;;;12.47;100.00;100907.81;5261953;28;20372;-75
2023/08/04 01:23:53;;;;;;;15.63;8.37;;;;;;;12.49;100.00;100908.63;5261987;28;20064;-77
2023/08/04 01:26:24;;;;;;;17.30;10.23;;;;;;;12.44;100.00;100906.09;5261712;28;20048;-75
2023/08/04 01:28:56;;;;;;;16.53;9.07;;;;;;;12.51;100.00;100910.34;5261031;28;20116;-76
2023/08/04 01:31:28;;;;;;;20.42;10.18;;;;;;;12.49;100.00;100924.31;5261612;28;20028;-77
2023/08/04 01:34:00;;;;;;;18.10;9.48;;;;;;;12.44;100.00;100920.94;5261909;28;20052;-75
2023/08/04 01:36:31;;;;;;;16.70;9.40;;;;;;;12.48;100.00;100917.41;5260606;28;20033;-77
2023/08/04 01:39:02;;;;;;;18.23;8.97;;;;;;;12.55;100.00;100919.00;5262108;28;20037;-76
2023/08/04 01:41:34;;;;;;;20.33;9.70;;;;;;;12.59;100.00;100924.13;5261798;28;20538;-76
2023/08/04 01:44:05;;;;;;;20.53;10.67;;;;;;;12.54;100.00;100930.31;5243862;28;20032;-76
2023/08/04 01:46:36;;;;;;;18.27;9.37;;;;;;;12.51;100.00;100933.00;5264809;28;20040;-76
2023/08/04 01:49:09;;;;;;;22.10;9.80;;;;;;;12.54;100.00;100922.47;5265489;28;20112;-76
2023/08/04 01:51:41;;;;;;;18.85;10.82;;;;;;;12.54;100.00;100930.31;5265587;28;20033;-76
2023/08/04 01:54:12;;;;;;;19.87;9.83;;;;;;;12.53;100.00;100929.47;5265688;28;20474;-77
2023/08/04 01:56:43;;;;;;;14.63;9.03;;;;;;;12.70;100.00;100934.41;5265657;28;20048;-75
2023/08/04 01:59:15;;;;;;;20.00;11.13;;;;;;;12.64;100.00;100925.78;5264936;28;20484;-76
2023/08/04 02:01:46;;;;;;;22.27;10.37;;;;;;;12.67;100.00;100921.38;5264848;28;20516;-76
2023/08/04 02:04:17;;;;;;;20.37;10.33;;;;;;;12.71;100.00;100930.88;5265054;28;20078;-76
2023/08/04 02:06:49;;;;;;;20.17;10.23;;;;;;;12.69;100.00;100935.28;5263895;28;20039;-75
2023/08/04 02:09:22;;;;;;;16.17;9.00;;;;;;;12.74;100.00;100928.19;5265105;28;20107;-76
2023/08/04 02:11:55;;;;;;;24.88;10.20;;;;;;;12.72;100.00;100930.00;5264928;28;20036;-76
2023/08/04 02:14:29;;;;;;;15.00;9.10;;;;;;;12.61;100.00;100931.94;5264993;28;20021;-77
2023/08/04 02:17:00;;;;;;;25.00;10.30;;;;;;;12.63;100.00;100938.00;5264995;28;20095;-76
2023/08/04 02:19:31;;;;;;;16.50;8.27;;;;;;;12.67;100.00;100939.69;5263607;28;20472;-77
2023/08/04 02:22:03;;;;;;;27.97;9.57;;;;;;;12.62;100.00;100936.28;5264671;28;20033;-76
2023/08/04 02:24:35;;;;;;;19.67;9.10;;;;;;;12.58;100.00;100939.84;5246662;28;20033;-76
2023/08/04 02:27:06;;;;;;;18.57;8.93;;;;;;;12.63;100.00;100937.16;5264575;28;20581;-76
2023/08/04 02:29:38;;;;;;;18.37;9.20;;;;;;;12.62;100.00;100938.03;5263004;28;20059;-77
2023/08/04 02:32:10;;;;;;;13.70;8.73;;;;;;;12.57;100.00;100939.00;5264747;28;20064;-76
2023/08/04 02:34:42;;;;;;;20.45;9.23;;;;;;;12.50;100.00;100944.38;5263326;28;20064;-77
2023/08/04 02:37:13;;;;;;;16.47;8.83;;;;;;;12.44;100.00;100953.16;5263020;28;20061;-76
2023/08/04 02:39:44;;;;;;;17.73;9.47;;;;;;;12.47;100.00;100947.03;5264323;28;20128;-75
2023/08/04 02:42:16;;;;;;;17.33;10.03;;;;;;;12.50;100.00;100949.59;5263319;28;20362;-75
2023/08/04 02:44:52;;;;;;;21.50;9.63;;;;;;;12.50;100.00;100955.69;5264486;28;20036;-77
2023/08/04 02:47:24;;;;;;;20.02;9.63;;;;;;;12.43;100.00;100953.19;5263067;28;20021;-76
2023/08/04 02:49:55;;;;;;;22.67;9.77;;;;;;;12.47;100.00;100954.88;5264318;28;20036;-76
2023/08/04 02:52:26;;;;;;;20.33;9.47;;;;;;;12.36;100.00;100950.72;5264258;28;20060;-77
2023/08/04 02:54:58;;;;;;;22.00;10.60;;;;;;;12.36;100.00;100945.47;5263980;28;20037;-77
2023/08/04 02:57:31;;;;;;;23.17;9.90;;;;;;;12.34;100.00;100952.47;5262073;28;20171;-76
2023/08/04 03:00:03;;;;;;;18.30;9.40;;;;;;;12.36;100.00;100948.09;5263764;28;20049;-75
2023/08/04 03:02:35;;;;;;;19.00;10.05;;;;;;;12.34;100.00;100949.84;5264156;28;20033;-77
2023/08/04 03:05:06;;;;;;;21.53;10.60;;;;;;;12.35;100.00;100943.75;5246179;28;20190;-77
2023/08/04 03:07:38;;;;;;;20.10;10.37;;;;;;;12.29;100.00;100949.06;5264026;28;20388;-76
2023/08/04 03:10:09;;;;;;;18.43;9.90;;;;;;;12.28;100.00;100952.56;5263933;28;20130;-76
2023/08/04 03:12:41;;;;;;;22.50;9.60;;;;;;;12.31;100.00;100960.34;5246073;28;20499;-76
2023/08/04 03:15:12;;;;;;;17.20;9.90;;;;;;;12.33;100.00;100957.72;5263594;28;20036;-76
2023/08/04 03:17:44;;;;;;;19.60;9.57;;;;;;;12.29;100.00;100954.31;5264013;28;20032;-76
2023/08/04 03:20:15;;;;;;;22.90;10.93;;;;;;;12.31;100.00;100954.28;5263768;28;20037;-75
2023/08/04 03:22:46;;;;;;;17.13;9.23;;;;;;;12.28;100.00;100956.94;5262389;28;20033;-76
2023/08/04 03:25:18;;;;;;;23.23;9.87;;;;;;;12.25;100.00;100963.06;5263396;28;20087;-77
2023/08/04 03:27:49;;;;;;;20.60;9.77;;;;;;;12.32;100.00;100969.94;5263165;28;20381;-76
2023/08/04 03:30:20;;;;;;;20.33;10.00;;;;;;;12.33;100.00;100976.91;5263282;28;20029;-76
2023/08/04 03:32:52;;;;;;;17.40;9.90;;;;;;;12.38;100.00;100972.44;5263542;28;20025;-76
2023/08/04 03:35:23;;;;;;;21.67;10.13;;;;;;;12.38;100.00;100974.19;5263418;28;20045;-76
2023/08/04 03:37:54;;;;;;;19.67;10.33;;;;;;;12.46;100.00;100974.06;5263042;28;20045;-75
2023/08/04 03:40:26;;;;;;;22.70;11.83;;;;;;;12.46;100.00;100968.81;5263303;28;20067;-76
2023/08/04 03:42:57;;;;;;;16.23;9.73;;;;;;;12.45;100.00;100972.34;5263321;28;20037;-76
2023/08/04 03:45:29;;;;;;;24.57;10.07;;;;;;;12.42;100.00;100970.63;5261822;28;20040;-76
2023/08/04 03:48:00;;;;;;;18.47;10.53;;;;;;;12.46;100.00;100966.22;5262625;28;20111;-76
2023/08/04 03:50:32;;;;;;;16.97;9.80;;;;;;;12.40;100.00;100965.44;5262965;28;20480;-76
2023/08/04 03:53:03;;;;;;;19.13;9.93;;;;;;;12.30;100.00;100974.34;5263217;28;20389;-77
2023/08/04 03:55:34;;;;;;;17.93;10.20;;;;;;;12.36;100.00;100979.47;5263026;28;20071;-77
2023/08/04 03:58:06;;;;;;;21.47;9.40;;;;;;;12.29;100.00;100980.44;5262717;28;20040;-74
2023/08/04 04:00:37;;;;;;;18.83;9.53;;;;;;;12.24;100.00;100977.06;5262598;28;20076;-76
2023/08/04 04:03:08;;;;;;;17.00;10.20;;;;;;;12.21;100.00;100979.72;5262648;28;20123;-76
2023/08/04 04:05:40;;;;;;;27.87;11.03;;;;;;;12.25;100.00;100978.75;5262818;28;20036;-75
2023/08/04 04:08:11;;;;;;;20.83;11.50;;;;;;;12.21;100.00;100985.78;5262125;28;20033;-75
2023/08/04 04:10:43;;;;;;;19.97;11.77;;;;;;;12.19;100.00;100986.72;5262775;28;20032;-76
2023/08/04 04:13:14;;;;;;;20.67;11.60;;;;;;;12.18;100.00;100985.84;5262790;28;20112;-76
2023/08/04 04:15:45;;;;;;;22.93;11.57;;;;;;;12.16;100.00;100982.41;5262967;28;20477;-77
2023/08/04 04:18:17;;;;;;;20.13;10.73;;;;;;;12.09;100.00;100986.00;5263100;28;20113;-74
2023/08/04 04:20:48;;;;;;;23.13;11.50;;;;;;;12.07;100.00;100984.28;5267826;28;20029;-77
2023/08/04 04:23:19;;;;;;;18.27;10.77;;;;;;;12.03;100.00;100986.94;5270380;28;20096;-76
2023/08/04 04:25:51;;;;;;;21.03;10.60;;;;;;;12.06;100.00;100985.16;5269245;28;20040;-77
2023/08/04 04:28:22;;;;;;;21.53;11.73;;;;;;;12.06;100.00;100998.22;5268553;28;20036;-75
2023/08/04 04:31:02;;;;;;;23.20;11.83;;;;;;;12.05;100.00;101005.22;5266354;28;20037;-76
2023/08/04 04:33:33;;;;;;;19.20;11.45;;;;;;;12.05;100.00;100997.38;5264157;28;20032;-77
2023/08/04 04:36:05;;;;;;;18.80;11.37;;;;;;;12.00;100.00;100997.44;5262716;28;20029;-77
2023/08/04 04:38:36;;;;;;;30.83;12.97;;;;;;;11.98;100.00;101004.47;5262420;28;20034;-76
2023/08/04 04:41:08;;;;;;;21.60;12.23;;;;;;;12.01;100.00;101003.53;5265561;28;20115;-75
2023/08/04 04:43:40;;;;;;;;;;;;;;;11.96;100.00;101000.13;5283579;28;20507;-75
2023/08/04 04:46:11;;;;;;;22.58;11.85;;;;;;;11.97;100.00;101001.88;5283218;28;19954;-75
2023/08/04 04:48:43;;;;;;;20.43;11.77;;;;;;;11.93;100.00;101006.28;5283216;28;20043;-76
2023/08/04 04:51:14;;;;;;;18.77;11.20;;;;;;;11.96;100.00;101006.25;5283296;28;20036;-76
2023/08/04 04:53:45;;;;;;;19.37;12.53;;;;;;;11.96;100.00;101008.84;5283083;28;20115;-76
2023/08/04 04:56:17;;;;;;;20.80;11.70;;;;;;;12.01;100.00;101014.88;5281820;28;20028;-76
2023/08/04 04:58:48;;;;;;;23.27;11.13;;;;;;;12.06;100.00;101016.53;5282698;28;20056;-76
2023/08/04 05:01:20;;;;;;;20.10;10.97;;;;;;;12.07;100.00;101019.13;5281596;28;20074;-76
2023/08/04 05:03:51;;;;;;;23.13;11.33;;;;;;;12.07;100.00;101024.34;5283015;28;20029;-77
2023/08/04 05:06:22;;;;;;;23.17;11.40;;;;;;;12.09;100.00;101026.94;5282965;28;20025;-76
2023/08/04 05:08:54;;;;;;;17.47;11.17;;;;;;;12.22;100.00;101029.34;5282889;28;20033;-76
2023/08/04 05:11:25;;;;;;;20.10;11.80;;;;;;;12.24;100.00;101031.94;5281717;28;20033;-76
2023/08/04 05:13:57;;;;;;;22.40;11.83;;;;;;;12.35;100.00;101037.84;5282722;28;20040;-76
2023/08/04 05:16:28;;;;;;;23.00;11.37;;;;;;;12.48;100.00;101040.28;5282511;28;20375;-75
2023/08/04 05:18:59;;;;;;;17.90;11.03;;;;;;;12.54;100.00;101035.81;5283438;28;20048;-75
2023/08/04 05:21:31;;;;;;;18.93;10.90;;;;;;;12.64;100.00;101040.84;5286855;28;20451;-75
2023/08/04 05:24:02;;;;;;;25.93;11.67;;;;;;;12.74;100.00;101042.44;5286566;28;20052;-77
2023/08/04 05:26:34;;;;;;;19.07;10.67;;;;;;;12.88;100.00;101048.28;5287277;28;20036;-77
2023/08/04 05:29:05;;;;;;;23.17;11.80;;;;;;;12.96;100.00;101048.16;5268231;28;20032;-76
2023/08/04 05:31:36;;;;;;;16.70;11.40;;;;;;;13.08;100.00;101055.75;5286779;28;20380;-76
2023/08/04 05:34:07;;;;;;;22.20;11.80;;;;;;;13.17;100.00;101061.72;5286687;28;20052;-77
2023/08/04 05:36:39;;;;;;;20.50;10.77;;;;;;;13.34;100.00;101062.28;5286683;28;20063;-77
2023/08/04 05:39:10;;;;;;;15.57;11.00;;;;;;;13.50;100.00;101052.34;5286750;28;20036;-77
2023/08/04 05:41:44;;;;;;;21.87;12.17;;;;;;;13.62;100.00;101052.13;5286197;28;20112;-76
2023/08/04 05:44:15;;;;;;;18.08;10.25;;;;;;;13.78;100.00;101057.88;5286418;28;20020;-77
2023/08/04 05:46:46;;;;;;;19.77;10.27;;;;;;;13.92;100.00;101049.69;5286391;28;20043;-77
2023/08/04 05:49:18;;;;;;;13.43;9.43;;;;;;;13.99;100.00;101055.66;5286254;28;20029;-77
2023/08/04 05:51:49;;;;;;;15.63;9.70;;;;;;;14.09;100.00;101067.69;5286397;28;20032;-77
2023/08/04 05:54:20;;;;;;;19.47;10.43;;;;;;;14.24;100.00;101063.84;5286393;28;20124;-77
2023/08/04 05:56:52;;;;;;;19.40;9.97;;;;;;;14.37;100.00;101070.50;5286186;28;20035;-76
2023/08/04 05:59:23;;;;;;;14.83;9.77;;;;;;;14.39;100.00;101073.97;5285366;28;20111;-76
2023/08/04 06:01:54;;;;;;;17.33;9.37;;;;;;;14.50;100.00;101076.31;5285631;28;20049;-76
2023/08/04 06:04:26;;;;;;;16.33;8.60;;;;;;;14.53;100.00;101080.63;5286347;28;20028;-77
2023/08/04 06:06:57;;;;;;;13.43;8.63;;;;;;;14.65;100.00;101079.50;5286115;28;20041;-77
2023/08/04 06:09:29;;;;;;;15.40;9.63;;;;;;;14.71;100.00;101076.72;5285934;28;20029;-77
2023/08/04 06:12:00;;;;;;;21.13;10.57;;;;;;;14.73;100.00;101082.78;5285667;28;20463;-76
2023/08/04 06:14:31;;;;;;;15.30;8.37;;;;;;;14.81;100.00;101085.22;5285682;28;20106;-77
2023/08/04 06:17:03;;;;;;;16.03;8.27;;;;;;;14.91;100.00;101084.94;5285994;28;20036;-77
2023/08/04 06:19:34;;;;;;;14.03;8.40;;;;;;;14.95;100.00;101091.81;5285816;28;20128;-77
2023/08/04 06:22:07;;;;;;;14.33;9.17;;;;;;;15.01;100.00;101089.97;5285784;28;20375;-77
2023/08/04 06:24:39;;;;;;;;;;;;;;;15.24;100.00;101095.44;5286023;28;20063;-77
2023/08/04 06:27:10;;;;;;;12.52;9.02;;;;;;;15.28;100.00;101098.88;5285434;28;20343;-78
2023/08/04 06:29:41;;;;;;;14.60;8.80;;;;;;;15.44;100.00;101108.03;5284911;28;20029;-78
2023/08/04 06:32:13;;;;;;;14.47;8.43;;;;;;;15.53;100.00;101106.91;5283386;28;20598;-76
2023/08/04 06:34:44;;;;;;;14.73;8.33;;;;;;;15.73;100.00;101111.63;5285588;28;20037;-77
2023/08/04 06:37:15;;;;;;;13.67;7.60;;;;;;;15.88;100.00;101112.94;5285487;28;20079;-76
2023/08/04 06:39:47;;;;;;;12.40;8.00;;;;;;;16.04;100.00;101116.84;5285193;28;20028;-77
2023/08/04 06:42:18;;;;;;;15.13;7.67;;;;;;;16.27;100.00;101123.16;5276114;28;20380;-78
2023/08/04 06:44:50;;;;;;;11.93;7.10;;;;;;;16.46;100.00;101123.44;5283970;28;20036;-77
2023/08/04 06:47:21;;;;;;;10.30;6.37;;;;;;;16.48;100.00;101126.88;5290429;28;20278;-77
2023/08/04 06:49:53;;;;;;;12.83;7.20;;;;;;;16.68;100.00;101126.25;5262758;28;20477;-77
2023/08/04 06:52:25;;;;;;;13.20;6.70;;;;;;;16.91;100.00;101133.41;5263173;28;20037;-77
2023/08/04 06:54:56;;;;;;;11.18;6.32;;;;;;;17.17;100.00;101139.56;5263603;28;20116;-81
2023/08/04 06:57:28;;;;;;;14.03;7.30;;;;;;;17.48;100.00;101130.56;5265313;28;20587;-78
2023/08/04 06:59:59;;;;;;;12.53;6.70;;;;;;;17.42;100.00;101142.19;5289170;28;20038;-77
2023/08/04 07:02:30;;;;;;;10.77;6.23;;;;;;;17.37;100.00;101144.16;5281879;28;20032;-78
2023/08/04 07:05:03;;;;;;;9.73;6.03;;;;;;;17.50;100.00;101145.41;5282602;28;20041;-78
2023/08/04 07:07:35;;;;;;;7.25;5.28;;;;;;;17.56;99.22;101141.69;5283499;28;20476;-76
2023/08/04 07:10:07;;;;;;;9.13;5.07;;;;;;;17.67;99.76;101151.84;5282477;28;20056;-78
2023/08/04 07:12:39;;;;;;;13.02;5.35;;;;;;;17.71;98.92;101150.84;5278444;28;20165;-78
2023/08/04 07:15:10;;;;;;;9.80;4.70;;;;;;;17.80;99.87;101147.84;5282150;28;20048;-78
2023/08/04 07:17:41;;;;;;;7.47;5.30;;;;;;;17.84;99.01;101160.00;5283508;28;20036;-77
2023/08/04 07:20:13;;;;;;;6.60;4.93;;;;;;;17.89;97.34;101156.34;5282743;28;20032;-78
2023/08/04 07:22:45;;;;;;;11.20;5.03;;;;;;;18.04;98.55;101154.00;5284225;28;20068;-76
2023/08/04 07:25:16;;;;;;;16.10;5.63;;;;;;;18.00;97.56;101155.06;5282581;28;20495;-78
2023/08/04 07:27:47;;;;;;;8.03;4.07;;;;;;;17.95;95.53;101164.03;5282404;28;20036;-77
2023/08/04 07:30:19;;;;;;;8.37;3.90;;;;;;;17.93;94.37;101160.59;5284358;28;20032;-78
2023/08/04 07:32:50;;;;;;;12.57;4.57;;;;;;;18.15;94.22;101161.50;5284117;28;20111;-77
2023/08/04 07:35:22;;;;;;;10.33;4.20;;;;;;;18.28;95.28;101158.41;5282986;28;20031;-77
2023/08/04 07:37:53;;;;;;;6.60;3.93;;;;;;;18.34;92.25;101160.81;5299346;28;20032;-76
2023/08/04 07:40:24;;;;;;;10.33;4.60;;;;;;;18.25;91.77;101163.78;5282438;28;20122;-77
2023/08/04 07:42:56;;;;;;;7.60;3.97;;;;;;;18.37;91.96;101172.09;5282377;28;20064;-78
2023/08/04 07:45:27;;;;;;;9.60;4.00;;;;;;;18.36;91.33;101173.00;5283590;28;20029;-77
2023/08/04 07:47:58;;;;;;;8.87;3.53;;;;;;;18.26;92.48;101174.28;5282755;28;20033;-78
2023/08/04 07:50:30;;;;;;;7.20;3.03;;;;;;;18.03;91.64;101170.75;5282419;28;20040;-77
2023/08/04 07:53:01;;;;;;;6.93;3.50;;;;;;;17.88;92.10;101170.47;5283808;28;20031;-77
2023/08/04 07:55:36;;;;;;;10.53;4.07;;;;;;;17.82;94.37;101177.66;5283598;28;20032;-77
2023/08/04 07:58:09;;;;;;;6.95;3.33;;;;;;;17.90;94.72;101179.19;5283471;28;20036;-77
2023/08/04 08:00:40;;;;;;;;;;;;;;;18.13;94.12;101179.19;5283858;28;20389;-77
2023/08/04 08:03:11;;;;;;;5.57;3.17;;;;;;;17.78;92.91;101183.09;5283737;28;19917;-76
2023/08/04 08:05:43;;;;;;;7.70;3.33;;;;;;;17.76;93.22;101185.78;5283707;28;20037;-76
2023/08/04 08:08:18;;;;;;;6.78;2.92;;;;;;;17.80;92.85;101187.38;5283367;28;20039;-78
2023/08/04 08:10:50;;;;;;;5.28;2.70;;;;;;;17.98;92.44;101195.56;5283666;28;20024;-76
2023/08/04 08:13:21;;;;;;;8.03;2.73;;;;;;;18.11;89.13;101202.13;5283292;28;20142;-77
2023/08/04 08:15:53;;;;;;;10.48;2.70;;;;;;;18.33;90.63;101188.09;5283559;28;20086;-77
2023/08/04 08:18:24;;;;;;;5.63;2.90;;;;;;;18.47;88.32;101188.44;5283586;28;20500;-77
2023/08/04 08:20:55;;;;;;;9.23;3.00;;;;;;;18.44;87.10;101190.34;5283729;28;20086;-78
2023/08/04 08:23:27;;;;;;;4.50;2.57;;;;;;;18.26;86.32;101194.53;5283243;28;20024;-77
2023/08/04 08:25:58;;;;;;;4.00;2.20;;;;;;;18.65;86.57;101185.97;5283470;28;20128;-76
2023/08/04 08:28:30;;;;;;;3.17;2.27;;;;;;;19.02;85.38;101198.56;5282959;28;20036;-77
2023/08/04 08:31:02;;;;;;;4.63;2.22;;;;;;;19.57;79.48;101207.72;5283078;28;20071;-78
2023/08/04 08:33:33;;;;;;;5.30;2.58;;;;;;;19.79;77.83;101200.59;5283278;28;20033;-78
2023/08/04 08:36:06;;;;;;;5.00;2.20;;;;;;;19.89;76.13;101208.97;5282076;28;20387;-78
2023/08/04 08:38:37;;;;;;;;;;;;;;;20.37;76.49;101210.28;5283647;28;20039;-77
2023/08/04 08:41:11;;;;;;;4.20;2.37;;;;;;;20.05;76.17;101209.13;5283352;28;19912;-77
2023/08/04 08:43:44;;;;;;;3.35;1.92;;;;;;;20.02;76.27;101202.19;5283024;28;20024;-78
2023/08/04 08:46:15;;;;;;;4.35;2.22;;;;;;;19.75;77.32;101212.19;5282937;28;20029;-78
2023/08/04 08:48:49;;;;;;;4.40;2.13;;;;;;;19.51;80.54;101214.13;5283173;28;20433;-76
2023/08/04 08:51:21;;;;;;;5.18;2.40;;;;;;;19.12;79.72;101212.25;5283145;28;20115;-76
2023/08/04 08:53:53;;;;;;;4.13;2.28;;;;;;;18.85;80.87;101216.88;5284665;28;20123;-76
2023/08/04 08:56:26;;;;;;;7.50;3.30;;;;;;;18.82;82.38;101220.50;5290230;28;20115;-75
2023/08/04 08:58:57;;;;;;;6.70;3.13;;;;;;;18.93;85.12;101217.44;5305480;28;20033;-76
2023/08/04 09:01:30;;;;;;;5.63;2.60;;;;;;;18.93;82.34;101223.59;5288253;28;20403;-77
2023/08/04 09:04:02;;;;;;;7.13;2.80;;;;;;;19.11;81.23;101221.97;5290165;28;20546;-78
2023/08/04 09:06:33;;;;;;;4.57;2.70;;;;;;;19.08;79.18;101224.75;5289764;28;20124;-78
2023/08/04 09:09:05;;;;;;;5.47;2.53;;;;;;;19.40;82.15;101225.19;5289531;28;20287;-78
2023/08/04 09:11:37;;;;;;;3.90;2.35;;;;;;;19.46;77.55;101232.84;5288422;28;20116;-77
2023/08/04 09:14:08;;;;;;;5.47;2.40;;;;;;;19.97;78.84;101235.09;5289631;28;20028;-78
2023/08/04 09:16:41;;;;;;;5.80;2.87;;;;;;;20.28;78.52;101231.03;5289754;28;20278;-77
2023/08/04 09:19:14;;;;;;;5.65;2.10;;;;;;;20.09;77.23;101228.38;5288035;28;20033;-77
2023/08/04 09:21:56;;;;;;;6.07;2.33;;;;;;;19.80;77.94;101236.69;5289444;28;20053;-78
2023/08/04 09:24:27;;;;;;;6.15;2.58;;;;;;;19.35;80.40;101239.50;5289172;28;20040;-77
2023/08/04 09:26:59;;;;;;;6.93;3.13;;;;;;;18.59;86.16;101247.81;5289541;28;20054;-78
2023/08/04 09:29:30;;;;;;;4.37;2.50;;;;;;;18.50;89.36;101249.03;5287840;28;20477;-78
2023/08/04 09:32:11;;;;;;;5.37;3.43;;;;;;;18.32;92.75;101245.31;5288680;28;20494;-78
2023/08/04 09:34:44;;;;;;;7.18;2.50;;;;;;;18.42;93.41;101235.28;5288589;28;20024;-78
2023/08/04 09:37:15;;;;;;;4.35;2.28;;;;;;;18.72;90.88;101234.97;5283232;28;20033;-79
2023/08/04 09:39:47;;;;;;;3.17;2.60;;;;;;;19.25;91.82;101229.31;5284810;28;20032;-77
2023/08/04 09:42:21;;;;;;;3.87;2.30;;;;;;;19.64;85.82;101241.78;5287338;28;20032;-77
2023/08/04 09:44:53;;;;;;;7.78;3.30;;;;;;;20.04;83.13;101241.81;5285645;28;20095;-77
2023/08/04 09:47:27;;;;;;;5.60;2.70;;;;;;;20.53;80.89;101250.13;5289038;28;20028;-78
2023/08/04 09:49:58;;;;;;;5.75;2.38;;;;;;;20.91;78.60;101251.91;5287792;28;20033;-78
2023/08/04 09:52:30;;;;;;;4.80;2.20;;;;;;;21.47;74.46;101250.00;5287914;28;20054;-77
2023/08/04 09:55:08;;;;;;;4.90;2.33;;;;;;;21.56;73.71;101249.56;5287734;28;20044;-77
2023/08/04 09:57:41;;;;;;;5.25;2.30;;;;;;;22.18;70.18;101256.94;5287016;28;20033;-78
2023/08/04 10:00:14;;;;;;;5.53;2.33;;;;;;;22.29;70.07;101249.28;5287125;28;20471;-77
2023/08/04 10:02:45;;;;;;;5.10;2.75;;;;;;;22.47;67.82;101251.88;5287979;28;20052;-77
2023/08/04 10:05:17;;;;;;;5.75;2.65;;;;;;;22.19;65.08;101250.69;5287024;28;20051;-77
2023/08/04 10:07:49;;;;;;;5.10;2.35;;;;;;;22.43;70.58;101240.56;5283225;28;20111;-76
2023/08/04 10:10:20;;;;;;;7.80;3.10;;;;;;;22.61;70.24;101246.63;5285287;28;20124;-78
2023/08/04 10:12:52;;;;;;;6.57;2.70;;;;;;;21.96;67.18;101255.44;5283474;28;20086;-79
2023/08/04 10:15:24;;;;;;;6.00;2.23;;;;;;;21.73;70.34;101248.69;5285788;28;20032;-78
2023/08/04 10:17:57;;;;;;;4.45;1.85;;;;;;;20.68;71.11;101259.16;5279834;28;20466;-83
2023/08/04 10:20:34;;;;;;;4.50;2.08;;;;;;;20.65;80.04;101246.06;5282150;28;20097;-83
2023/08/04 10:23:05;;;;;;;5.18;2.40;;;;;;;20.50;81.07;101246.78;5284786;28;20031;-82
2023/08/04 10:25:36;;;;;;;3.80;1.80;;;;;;;20.26;76.79;101249.63;5283773;28;20029;-82
2023/08/04 10:28:10;;;;;;;5.27;2.13;;;;;;;20.42;78.20;101248.94;5284233;28;20353;-83
2023/08/04 10:30:42;;;;;;;3.50;1.85;;;;;;;20.54;76.61;101243.03;5285140;28;20105;-82
2023/08/04 10:33:19;;;;;;;;;;;;;;;21.30;77.18;101250.88;5283549;28;20432;-82
2023/08/04 10:36:08;;;;;;;3.70;1.90;;;;;;;22.38;72.58;101254.09;5285410;28;19917;-82
2023/08/04 10:38:47;;;;;;;4.70;2.00;;;;;;;23.60;65.37;101257.78;5284139;28;20021;-82
2023/08/04 10:41:19;;;;;;;3.88;1.98;;;;;;;23.73;61.92;101257.03;5282952;28;20082;-82
2023/08/04 10:44:02;;;;;;;4.00;1.97;;;;;;;24.05;58.27;101263.06;5283689;28;20387;-81
2023/08/04 10:46:33;;;;;;;7.85;2.40;;;;;;;23.54;62.06;101255.50;5283045;28;20021;-82
2023/08/04 10:49:06;;;;;;;8.43;2.67;;;;;;;23.99;63.15;101256.31;5282315;28;20383;-82
2023/08/04 10:51:37;;;;;;;6.30;1.90;;;;;;;22.90;59.66;101260.94;5285687;28;20039;-83
2023/08/04 10:54:09;;;;;;;3.35;1.52;;;;;;;23.37;58.56;101258.28;5284697;28;20103;-82
2023/08/04 10:56:45;;;;;;;6.60;1.92;;;;;;;22.80;57.92;101269.50;5284673;28;20154;-81
2023/08/04 10:59:16;;;;;;;7.05;2.10;;;;;;;22.55;61.31;101273.53;5283047;28;20028;-82
2023/08/04 11:01:48;;;;;;;4.07;2.23;;;;;;;22.54;60.80;101269.16;5285016;28;20063;-81
2023/08/04 11:04:19;;;;;;;6.90;2.45;;;;;;;22.99;62.52;101266.66;5284183;28;20110;-81
2023/08/04 11:06:51;;;;;;;6.50;2.20;;;;;;;23.64;59.35;101272.59;5283995;28;20502;-80
2023/08/04 11:09:23;;;;;;;5.13;1.90;;;;;;;24.97;55.80;101276.81;5286807;28;20033;-81
2023/08/04 11:11:55;;;;;;;7.10;1.95;;;;;;;26.30;45.54;101274.03;5288359;28;20064;-82
2023/08/04 11:14:26;;;;;;;9.05;2.10;;;;;;;26.83;44.19;101271.13;5287498;28;20111;-82
2023/08/04 11:17:01;;;;;;;4.50;1.97;;;;;;;26.50;46.93;101286.81;5288463;28;20032;-82
2023/08/04 11:19:32;;;;;;;3.72;1.73;;;;;;;25.22;49.23;101270.72;5288444;28;20399;-82
2023/08/04 11:22:13;;;;;;;3.67;1.65;;;;;;;24.09;54.50;101280.56;5287646;28;20070;-81
2023/08/04 11:24:44;;;;;;;2.42;1.48;;;;;;;23.72;59.87;101280.13;5286607;28;20035;-81
2023/08/04 11:27:16;;;;;;;3.40;1.70;;;;;;;23.89;59.04;101286.25;5287214;28;20036;-82
2023/08/04 11:29:54;;;;;;;2.65;1.60;;;;;;;23.71;59.13;101296.19;5284818;28;20021;-82
2023/08/04 11:32:25;;;;;;;2.63;1.45;;;;;;;23.50;57.55;101288.53;5286349;28;20426;-81
2023/08/04 11:34:57;;;;;;;3.88;1.75;;;;;;;23.07;61.48;101289.25;5288438;28;20048;-83